Terminal Aerodrome Forecast
Issued by NWS

Home | Current Version | Previous Version | Text Only | Print | Product List | Glossary On
Versions: 1 2 3 4 5 6 7 8 9 10 11 12
000
FTUS43 KOAX 050533
TAFCDR
TAF
KCDR 050533Z 0506/0606 VRB04KT P6SM SCT150
     FM050900 24004KT P6SM SKC
     FM051800 19008KT P6SM SCT100
     FM060000 15012KT P6SM VCTS BKN060CB BKN100=

USA.gov is the U.S. government's official web portal to all federal, state and local government web resources and services.